Terminal Aerodrome Forecast
Issued by NWS Wilmington, OH

Current Version | Previous Version | Text Only | Print | Product List | Glossary Off
Versions: 1 2 3 4 5 6 7 8 9 10 11 12 13 14 15 16 17 18 19 20 21 22 23 24 25 26 27 28 29 30 31

136
FTUS41 KILN 301603 AAD
TAFCMH
TAF AMD
KCMH 301603Z 3016/0112 21008KT P6SM OVC005
      TEMPO 3016/3018 2SM BR OVC003
     FM301800 22005KT P6SM BKN015
     FM301900 24010G20KT P6SM BKN035
     FM010000 25010KT P6SM SCT040
     FM010500 26009KT P6SM OVC035=

USA.gov is the U.S. government's official web portal to all federal, state and local government web resources and services.